KHWD/HWD METAR and TAF weather

Enter ICAO airport designator
Station Type Date Time Source
KHWD METAR 2019/08/19 11:54 UTC NOAA

KHWD 191154Z AUTO 26008KT 10SM OVC014 17/13 A2994 RMK AO2 SLP148 T01670128 10172 20167 51003


Station Type Date Time Source
KHWD Decoded METAR 2019/08/19 11:54 UTC NOAA

Station name not available
Aug 19, 2019 - 07:54 AM EDT / 2019.08.19 1154 UTC
Wind: from the W (260 degrees) at 9 MPH (8 KT):0
Visibility: 10 mile(s):0
Sky conditions: overcast
Temperature: 62.1 F (16.7 C)
Dew Point: 55.0 F (12.8 C)
Relative Humidity: 77%
Pressure (altimeter): 29.94 in. Hg (1013 hPa)
Pressure tendency: 0.01 inches (0.3 hPa) higher than three hours ago
ob: KHWD 191154Z AUTO 26008KT 10SM OVC014 17/13 A2994 RMK AO2 SLP148 T01670128 10172 20167 51003
cycle: 12

Station Type Date Time Source
KHWD TAF UTC NOAA

Error!

Example: see airport list